Time;durP1;ratioP1;P1;durP2;ratioP2;P2;SDS_P1;SDS_P2;PMS_P1;PMS_P2;Temp;Humidity;BMP_temperature;BMP_pressure;BME280_temperature;BME280_humidity;BME280_pressure;Samples;Min_cycle;Max_cycle;Signal;HPM_P1;HPM_P2
2022/01/15 00:02:15;;;;;;;24.40;11.47;;;;;;;2.08;100.00;100700.03;5053765;28;20196;-84
2022/01/15 00:04:44;;;;;;;21.13;11.00;;;;;;;2.15;100.00;100706.09;5051712;28;20216;-84
2022/01/15 00:07:13;;;;;;;23.47;11.47;;;;;;;2.12;100.00;100711.31;5052656;28;20189;-84
2022/01/15 00:09:43;;;;;;;21.43;10.40;;;;;;;2.14;100.00;100701.75;5052105;28;20203;-84
2022/01/15 00:12:12;;;;;;;20.20;10.17;;;;;;;2.10;100.00;100698.25;5048157;28;20212;-84
2022/01/15 00:14:42;;;;;;;21.80;10.67;;;;;;;2.09;100.00;100704.38;5051342;28;20205;-85
2022/01/15 00:17:19;;;;;;;20.70;11.03;;;;;;;2.12;100.00;100701.75;5066468;27;20204;-83
2022/01/15 00:19:50;;;;;;;18.87;11.13;;;;;;;2.13;100.00;100695.66;5069609;28;20197;-83
2022/01/15 00:22:21;;;;;;;21.17;11.33;;;;;;;2.18;100.00;100698.25;5056330;28;20201;-85
2022/01/15 00:24:51;;;;;;;19.93;10.37;;;;;;;2.22;100.00;100702.56;5048763;28;20200;-84
2022/01/15 00:27:20;;;;;;;23.07;11.67;;;;;;;2.21;100.00;100696.47;5052245;28;20201;-84
2022/01/15 00:29:50;;;;;;;23.33;11.33;;;;;;;2.29;100.00;100689.44;5075699;28;20276;-85
2022/01/15 00:32:20;;;;;;;17.90;9.60;;;;;;;2.34;100.00;100689.44;5075471;28;20295;-84
2022/01/15 00:34:48;;;;;;;19.93;10.20;;;;;;;2.35;100.00;100688.56;5070449;28;20251;-84
2022/01/15 00:37:22;;;;;;;18.23;9.50;;;;;;;2.26;100.00;100684.25;5070645;28;20220;-83
2022/01/15 00:39:50;;;;;;;19.80;10.93;;;;;;;2.31;100.00;100673.75;5075586;28;20208;-84
2022/01/15 00:42:19;;;;;;;20.13;10.47;;;;;;;2.34;100.00;100684.22;5078554;28;20196;-84
2022/01/15 00:44:49;;;;;;;20.63;10.20;;;;;;;2.29;100.00;100686.84;5078428;28;20288;-84
2022/01/15 00:47:18;;;;;;;22.40;11.33;;;;;;;2.35;100.00;100680.72;5064803;28;20205;-84
2022/01/15 00:49:48;;;;;;;20.63;10.40;;;;;;;2.37;100.00;100673.72;5058566;28;20223;-84
2022/01/15 00:52:16;;;;;;;16.87;9.20;;;;;;;2.46;100.00;100672.81;5024393;28;20276;-84
2022/01/15 00:54:46;;;;;;;14.70;7.93;;;;;;;2.40;100.00;100668.47;5058413;28;20201;-84
2022/01/15 00:57:14;;;;;;;17.00;9.27;;;;;;;2.25;100.00;100673.81;5061814;28;20221;-85
2022/01/15 00:59:44;;;;;;;15.17;8.50;;;;;;;2.39;100.00;100665.88;5068545;28;20212;-85
2022/01/15 01:02:17;;;;;;;13.83;7.70;;;;;;;2.53;100.00;100669.28;5058657;28;20185;-83
2022/01/15 01:04:48;;;;;;;15.27;8.03;;;;;;;2.54;100.00;100673.63;5056550;28;20201;-84
2022/01/15 01:07:16;;;;;;;14.73;8.40;;;;;;;2.38;100.00;100662.38;5057019;27;20208;-83
2022/01/15 01:10:02;;;;;;;12.73;7.23;;;;;;;2.41;100.00;100662.34;5057962;27;20201;-85
2022/01/15 01:12:45;;;;;;;16.50;8.90;;;;;;;2.34;100.00;100672.91;5051489;28;20201;-84
2022/01/15 01:21:18;;;;;;;13.57;8.33;;;;;;;2.27;100.00;100657.22;5050568;27;20197;-84
2022/01/15 01:23:49;;;;;;;15.77;10.13;;;;;;;2.18;100.00;100653.81;5051676;28;20204;-84
2022/01/15 01:26:27;;;;;;;15.70;8.77;;;;;;;2.25;100.00;100647.66;5029268;28;20193;-84
2022/01/15 01:29:03;;;;;;;15.07;9.70;;;;;;;2.35;100.00;100656.31;5057287;27;20208;-84
2022/01/15 01:31:37;;;;;;;14.80;9.20;;;;;;;2.26;100.00;100654.63;5046525;28;20209;-84
2022/01/15 01:34:11;;;;;;;16.97;9.83;;;;;;;2.27;100.00;100652.00;5049401;28;20283;-83
2022/01/15 01:36:42;;;;;;;17.27;9.63;;;;;;;2.23;100.00;100650.31;5051294;28;20219;-84
2022/01/15 01:39:15;;;;;;;15.73;9.00;;;;;;;2.32;100.00;100643.25;5012458;28;20202;-83
2022/01/15 01:41:53;;;;;;;14.10;8.80;;;;;;;2.39;100.00;100648.44;5037718;28;20254;-81
2022/01/15 01:44:24;;;;;;;14.03;8.93;;;;;;;2.42;100.00;100650.19;5024087;28;20224;-84
2022/01/15 01:47:02;;;;;;;14.87;8.60;;;;;;;2.42;100.00;100650.19;5016510;28;20206;-84
2022/01/15 01:49:30;;;;;;;15.93;9.80;;;;;;;2.51;100.00;100644.84;5009913;28;20186;-84
2022/01/15 01:52:00;;;;;;;19.40;10.73;;;;;;;2.50;100.00;100641.38;5010704;28;20203;-84
2022/01/15 01:54:28;;;;;;;18.43;10.33;;;;;;;2.38;100.00;100644.09;5011075;28;20206;-84
2022/01/15 01:56:57;;;;;;;32.90;16.10;;;;;;;2.04;100.00;100647.81;5003552;28;20352;-84
2022/01/15 01:59:27;;;;;;;32.13;16.30;;;;;;;2.06;100.00;100648.66;5013763;28;20263;-83
2022/01/15 02:01:55;;;;;;;35.97;18.53;;;;;;;1.97;100.00;100654.78;5011917;28;20187;-84
2022/01/15 02:04:24;;;;;;;39.77;18.60;;;;;;;1.84;100.00;100645.28;5008329;28;20190;-84
2022/01/15 02:06:52;;;;;;;34.83;17.73;;;;;;;1.88;100.00;100644.38;5010551;28;20210;-85
2022/01/15 02:09:23;;;;;;;38.77;19.33;;;;;;;1.88;100.00;100640.03;5010948;28;20209;-84
2022/01/15 02:11:52;;;;;;;39.23;18.30;;;;;;;1.92;100.00;100640.88;5009743;28;20191;-84
2022/01/15 02:14:27;;;;;;;33.17;17.23;;;;;;;2.06;100.00;100646.91;5010706;28;20209;-84
2022/01/15 02:16:55;;;;;;;36.07;17.20;;;;;;;2.02;100.00;100647.78;5008815;28;20225;-85
2022/01/15 02:19:31;;;;;;;34.10;17.67;;;;;;;2.00;100.00;100644.31;5009582;28;20823;-85
2022/01/15 02:24:46;;;;;;;31.53;17.10;;;;;;;1.94;100.00;100632.16;5010112;28;20202;-83
2022/01/15 02:27:14;;;;;;;34.03;17.13;;;;;;;1.95;100.00;100630.44;5026361;27;20206;-83
2022/01/15 02:29:42;;;;;;;37.30;18.20;;;;;;;1.92;100.00;100633.03;5067196;28;20196;-84
2022/01/15 02:32:10;;;;;;;47.47;19.23;;;;;;;1.83;100.00;100627.84;5068642;28;20211;-84
2022/01/15 02:34:40;;;;;;;44.20;18.93;;;;;;;1.72;100.00;100627.91;5067083;28;20238;-84
2022/01/15 02:37:09;;;;;;;45.27;19.57;;;;;;;1.65;100.00;100628.81;5071570;28;20227;-84
2022/01/15 02:39:38;;;;;;;61.07;20.03;;;;;;;1.63;100.00;100626.19;5106535;28;20243;-83
2022/01/15 02:42:07;;;;;;;75.90;20.37;;;;;;;1.24;100.00;100626.31;5104375;28;20286;-83
2022/01/15 02:44:38;;;;;;;107.43;22.83;;;;;;;1.21;100.00;100621.13;5107005;28;20187;-84
2022/01/15 02:49:54;;;;;;;92.30;21.37;;;;;;;1.09;100.00;100619.41;5049142;28;20220;-85
2022/01/15 02:52:22;;;;;;;63.73;20.47;;;;;;;1.20;100.00;100628.09;5053191;28;20212;-85
2022/01/15 02:54:51;;;;;;;84.03;21.43;;;;;;;1.20;100.00;100622.00;5050168;28;20193;-84
2022/01/15 02:57:19;;;;;;;89.63;21.53;;;;;;;1.09;100.00;100612.47;5050981;28;20217;-84
2022/01/15 02:59:47;;;;;;;106.30;22.13;;;;;;;1.03;100.00;100608.97;5048148;28;20193;-84
2022/01/15 03:02:18;;;;;;;59.83;19.67;;;;;;;1.11;100.00;100612.44;5050583;28;20205;-84
2022/01/15 03:04:46;;;;;;;67.23;19.37;;;;;;;1.15;100.00;100614.16;5049895;28;20194;-84
2022/01/15 03:07:16;;;;;;;236.93;30.27;;;;;;;0.89;100.00;100614.22;5051655;28;20193;-83
2022/01/15 03:09:44;;;;;;;111.17;22.37;;;;;;;0.90;100.00;100618.56;5045465;28;20186;-84
2022/01/15 03:12:12;;;;;;;72.10;19.63;;;;;;;1.07;100.00;100619.44;5112572;28;20272;-84
2022/01/15 03:14:42;;;;;;;60.77;19.70;;;;;;;1.21;100.00;100614.16;5107291;28;20207;-83
2022/01/15 03:17:10;;;;;;;68.03;20.93;;;;;;;1.20;100.00;100620.25;5109852;28;20219;-84
2022/01/15 03:19:43;;;;;;;112.63;21.80;;;;;;;1.18;100.00;100619.41;5107976;28;20199;-84
2022/01/15 03:22:11;;;;;;;69.30;21.03;;;;;;;1.27;100.00;100618.50;5112375;28;20195;-84
2022/01/15 03:24:41;;;;;;;62.07;19.57;;;;;;;1.34;100.00;100602.81;5107365;28;20199;-84
2022/01/15 03:27:10;;;;;;;52.23;18.67;;;;;;;1.28;100.00;100610.66;5106596;28;20278;-84
2022/01/15 03:29:38;;;;;;;48.57;18.27;;;;;;;1.52;100.00;100601.88;5097321;28;20198;-84
2022/01/15 03:32:08;;;;;;;46.13;17.17;;;;;;;1.57;100.00;100600.13;5046190;28;20192;-85
2022/01/15 03:34:36;;;;;;;52.10;18.57;;;;;;;1.52;100.00;100607.09;5048759;28;20201;-84
2022/01/15 03:37:05;;;;;;;47.73;17.20;;;;;;;1.57;100.00;100610.56;5050986;28;20236;-84
2022/01/15 03:39:35;;;;;;;48.63;17.63;;;;;;;1.52;100.00;100603.63;5045545;28;20209;-85
2022/01/15 03:42:11;;;;;;;47.27;17.97;;;;;;;1.63;100.00;100612.28;5042422;28;20250;-85
2022/01/15 03:44:41;;;;;;;47.37;18.03;;;;;;;1.76;100.00;100611.38;5056643;27;20207;-83
2022/01/15 03:47:10;;;;;;;44.80;16.57;;;;;;;1.68;100.00;100606.16;5053372;28;20216;-84
2022/01/15 03:49:40;;;;;;;46.77;16.83;;;;;;;1.55;100.00;100599.28;5052674;28;20197;-84
2022/01/15 03:52:10;;;;;;;43.37;16.43;;;;;;;1.51;100.00;100605.38;5053557;28;20193;-83
2022/01/15 03:54:39;;;;;;;40.13;15.50;;;;;;;1.59;100.00;100608.81;5059623;27;20234;-84
2022/01/15 03:57:09;;;;;;;39.97;15.83;;;;;;;1.32;100.00;100596.72;5053325;27;20212;-84
2022/01/15 03:59:37;;;;;;;43.10;15.93;;;;;;;1.38;100.00;100588.03;5048009;28;20205;-84
2022/01/15 04:02:06;;;;;;;39.63;15.77;;;;;;;1.28;100.00;100595.00;5051237;28;20197;-84
2022/01/15 04:04:34;;;;;;;36.30;14.53;;;;;;;1.54;100.00;100586.19;5095796;28;20200;-84
2022/01/15 04:07:03;;;;;;;43.57;15.90;;;;;;;1.48;100.00;100581.88;5052954;28;20288;-84
2022/01/15 04:09:33;;;;;;;42.20;14.57;;;;;;;1.39;100.00;100574.09;5019725;28;20250;-84
2022/01/15 04:12:02;;;;;;;36.90;14.87;;;;;;;1.32;100.00;100567.16;5059473;27;20197;-84
2022/01/15 04:14:33;;;;;;;39.60;15.50;;;;;;;1.44;100.00;100573.19;5069790;28;20196;-84
2022/01/15 04:17:01;;;;;;;38.73;14.93;;;;;;;1.60;100.00;100571.38;5067821;28;20287;-83
2022/01/15 04:19:30;;;;;;;33.57;14.13;;;;;;;1.69;100.00;100567.84;5065995;28;20200;-85
2022/01/15 04:22:00;;;;;;;39.33;15.80;;;;;;;1.65;100.00;100568.75;5071459;28;20287;-84
2022/01/15 04:24:29;;;;;;;45.40;17.17;;;;;;;1.46;100.00;100561.88;5064840;28;20197;-84
2022/01/15 04:26:58;;;;;;;37.97;14.33;;;;;;;1.50;100.00;100558.38;5068698;28;20203;-84
2022/01/15 04:29:26;;;;;;;37.57;14.83;;;;;;;1.62;100.00;100560.91;5069300;28;20193;-85
2022/01/15 04:31:56;;;;;;;42.10;15.80;;;;;;;1.80;100.00;100566.06;5062091;28;20197;-83
2022/01/15 04:34:26;;;;;;;44.50;17.60;;;;;;;1.84;100.00;100561.69;5072018;28;20181;-84
2022/01/15 04:36:57;;;;;;;45.37;16.20;;;;;;;1.90;100.00;100566.88;5047529;28;20197;-83
2022/01/15 04:39:26;;;;;;;40.23;15.73;;;;;;;1.90;100.00;100566.88;5056062;27;20221;-83
2022/01/15 04:41:54;;;;;;;41.83;14.70;;;;;;;1.93;100.00;100557.28;5052082;28;20245;-84
2022/01/15 04:44:22;;;;;;;39.80;15.30;;;;;;;1.97;100.00;100558.97;5051124;28;20254;-84
2022/01/15 04:46:52;;;;;;;38.27;15.90;;;;;;;2.06;100.00;100551.97;5051010;28;20202;-84
2022/01/15 04:49:27;;;;;;;40.73;16.57;;;;;;;1.99;100.00;100554.59;5052644;28;20624;-84
2022/01/15 04:51:55;;;;;;;44.23;17.63;;;;;;;2.13;100.00;100557.16;5057049;27;20193;-83
2022/01/15 04:54:26;;;;;;;35.20;15.60;;;;;;;2.17;100.00;100552.75;5052333;28;20250;-84
2022/01/15 04:56:55;;;;;;;42.93;16.50;;;;;;;1.78;100.00;100552.13;5051893;28;20204;-84
2022/01/15 04:59:24;;;;;;;42.93;16.60;;;;;;;1.94;100.00;100548.56;5055814;28;20244;-83
2022/01/15 05:01:55;;;;;;;41.67;14.43;;;;;;;1.98;100.00;100558.09;5052404;28;20204;-84
2022/01/15 05:04:27;;;;;;;38.13;15.23;;;;;;;1.98;100.00;100547.66;5050748;28;20291;-84
2022/01/15 05:06:56;;;;;;;40.60;14.73;;;;;;;1.99;100.00;100557.22;5049270;28;20185;-84
2022/01/15 05:09:25;;;;;;;36.67;14.67;;;;;;;2.12;100.00;100547.53;5050426;28;20212;-84
2022/01/15 05:12:01;;;;;;;48.33;17.23;;;;;;;2.18;100.00;100551.88;5046405;28;20193;-85
2022/01/15 05:14:30;;;;;;;51.97;18.60;;;;;;;2.26;100.00;100550.94;5050724;28;20196;-84
2022/01/15 05:16:59;;;;;;;43.47;15.20;;;;;;;2.12;100.00;100542.31;5053029;28;20319;-85
2022/01/15 05:19:28;;;;;;;45.83;17.73;;;;;;;2.06;100.00;100546.75;5050272;28;20213;-84
2022/01/15 05:21:58;;;;;;;48.43;17.57;;;;;;;2.22;100.00;100544.00;5048946;28;20193;-85
2022/01/15 05:24:29;;;;;;;47.87;17.23;;;;;;;2.14;100.00;100537.97;5050324;28;20197;-83
2022/01/15 05:26:58;;;;;;;50.60;16.77;;;;;;;2.18;100.00;100533.56;5050146;28;20240;-84
2022/01/15 05:29:26;;;;;;;48.93;16.53;;;;;;;2.21;100.00;100534.41;5051579;28;20193;-83
2022/01/15 05:31:55;;;;;;;46.63;16.37;;;;;;;2.23;100.00;100535.28;5049593;28;20203;-84
2022/01/15 05:34:24;;;;;;;42.23;16.40;;;;;;;2.21;100.00;100534.41;5050098;28;20712;-84
2022/01/15 05:36:54;;;;;;;44.73;15.90;;;;;;;2.20;100.00;100531.81;5051650;28;20204;-84
2022/01/15 05:39:22;;;;;;;43.53;16.20;;;;;;;2.15;100.00;100531.88;5050064;28;20271;-85
2022/01/15 05:41:50;;;;;;;47.10;16.30;;;;;;;2.11;100.00;100529.25;5048755;28;20686;-83
2022/01/15 05:44:21;;;;;;;57.03;17.53;;;;;;;1.99;100.00;100517.16;5051365;28;20197;-84
2022/01/15 05:46:50;;;;;;;51.70;17.20;;;;;;;2.03;100.00;100516.28;5051014;28;20213;-84
2022/01/15 05:49:18;;;;;;;66.43;17.70;;;;;;;1.99;100.00;100525.88;5048382;28;20201;-84
2022/01/15 05:51:47;;;;;;;58.33;18.73;;;;;;;1.93;100.00;100522.41;5046089;28;20328;-84
2022/01/15 05:54:17;;;;;;;63.97;21.17;;;;;;;1.76;100.00;100512.09;5052511;28;20189;-84
2022/01/15 05:56:50;;;;;;;57.97;17.83;;;;;;;1.82;100.00;100512.03;5050548;27;20252;-84
2022/01/15 05:59:19;;;;;;;65.43;19.20;;;;;;;1.90;100.00;100514.63;5049894;28;20217;-84
2022/01/15 06:01:49;;;;;;;56.97;17.90;;;;;;;1.88;100.00;100511.16;5050242;28;20728;-83
2022/01/15 06:04:19;;;;;;;70.93;21.97;;;;;;;1.87;100.00;100520.72;5056019;27;20592;-84
2022/01/15 06:06:47;;;;;;;73.70;23.00;;;;;;;1.81;100.00;100512.94;5047502;28;20205;-84
2022/01/15 06:09:18;;;;;;;62.57;20.63;;;;;;;1.93;100.00;100519.81;5052366;28;20215;-84
2022/01/15 06:11:46;;;;;;;57.57;20.00;;;;;;;1.83;100.00;100518.13;5048744;28;20698;-84
2022/01/15 06:14:15;;;;;;;50.37;18.43;;;;;;;1.89;100.00;100518.97;5057198;27;20261;-85
2022/01/15 06:16:44;;;;;;;53.90;19.23;;;;;;;1.81;100.00;100520.75;5050412;28;20193;-84
2022/01/15 06:19:12;;;;;;;65.83;18.87;;;;;;;1.75;100.00;100518.22;5041492;28;20630;-84
2022/01/15 06:21:40;;;;;;;54.73;18.50;;;;;;;1.77;100.00;100519.06;5052704;28;20201;-84
2022/01/15 06:24:09;;;;;;;51.67;17.20;;;;;;;1.86;100.00;100516.41;5052861;28;20197;-85
2022/01/15 06:26:39;;;;;;;44.97;17.70;;;;;;;1.91;100.00;100512.00;5052344;28;20197;-85
2022/01/15 06:29:07;;;;;;;46.67;16.93;;;;;;;1.90;100.00;100510.25;5045746;28;20204;-85
2022/01/15 06:31:36;;;;;;;39.70;15.97;;;;;;;1.85;100.00;100512.06;5050737;28;20216;-85
2022/01/15 06:34:04;;;;;;;41.60;15.50;;;;;;;1.93;100.00;100520.72;5046519;28;20197;-85
2022/01/15 06:36:32;;;;;;;40.70;16.17;;;;;;;1.95;100.00;100520.69;5047680;28;20201;-85
2022/01/15 06:39:01;;;;;;;49.77;20.07;;;;;;;1.75;100.00;100514.72;5043532;28;20225;-84
2022/01/15 06:41:30;;;;;;;55.60;19.63;;;;;;;1.75;100.00;100519.97;5047744;28;20192;-84
2022/01/15 06:44:00;;;;;;;57.90;19.10;;;;;;;1.85;100.00;100519.88;5046156;28;20201;-84
2022/01/15 06:46:28;;;;;;;42.10;17.03;;;;;;;1.80;100.00;100518.16;5051653;28;20212;-85
2022/01/15 06:48:56;;;;;;;45.80;17.50;;;;;;;1.77;100.00;100519.06;5045385;28;20201;-85
2022/01/15 06:51:26;;;;;;;36.00;14.67;;;;;;;1.79;100.00;100512.06;5053397;28;20212;-85
2022/01/15 06:53:54;;;;;;;40.63;16.87;;;;;;;1.84;100.00;100515.53;5041863;28;20208;-85
2022/01/15 06:56:23;;;;;;;48.40;19.17;;;;;;;1.86;100.00;100505.94;5037662;28;20657;-85
2022/01/15 06:58:51;;;;;;;40.43;17.00;;;;;;;1.90;100.00;100515.47;5049951;28;20219;-84
2022/01/15 07:01:21;;;;;;;42.17;16.60;;;;;;;1.84;100.00;100519.91;5046703;28;20215;-84
2022/01/15 07:03:49;;;;;;;44.20;16.93;;;;;;;1.89;100.00;100516.34;5043214;28;20201;-85
2022/01/15 07:06:17;;;;;;;44.03;17.10;;;;;;;1.94;100.00;100516.34;5046402;28;20201;-85
2022/01/15 07:08:45;;;;;;;38.10;15.77;;;;;;;2.10;100.00;100515.34;5046398;28;20193;-85
2022/01/15 07:11:14;;;;;;;50.33;18.03;;;;;;;2.03;100.00;100504.94;5050788;28;20190;-84
2022/01/15 07:13:42;;;;;;;45.43;17.80;;;;;;;1.96;100.00;100505.00;5055821;28;20246;-85
2022/01/15 07:16:11;;;;;;;44.73;18.37;;;;;;;2.03;100.00;100511.06;5060197;27;20208;-84
2022/01/15 07:18:40;;;;;;;41.97;15.73;;;;;;;1.98;100.00;100505.84;5051776;28;20204;-83
2022/01/15 07:21:10;;;;;;;40.97;15.43;;;;;;;1.82;100.00;100505.97;5076849;28;20284;-81
2022/01/15 07:23:38;;;;;;;33.83;14.67;;;;;;;1.87;100.00;100505.06;5083677;27;20177;-80
2022/01/15 07:26:06;;;;;;;42.00;16.20;;;;;;;1.84;100.00;100505.09;5076267;28;20209;-85
2022/01/15 07:28:35;;;;;;;37.80;16.40;;;;;;;1.99;100.00;100502.34;5044799;28;20201;-84
2022/01/15 07:31:03;;;;;;;42.03;16.70;;;;;;;1.97;100.00;100505.88;5051621;28;20201;-84
2022/01/15 07:33:32;;;;;;;39.60;15.07;;;;;;;1.96;100.00;100510.22;5062889;28;20199;-85
2022/01/15 07:36:01;;;;;;;43.23;17.67;;;;;;;1.75;100.00;100507.75;5047409;28;20197;-84
2022/01/15 07:38:30;;;;;;;41.17;16.97;;;;;;;1.82;100.00;100508.56;5050912;28;20229;-84
2022/01/15 07:40:59;;;;;;;36.57;16.07;;;;;;;1.83;100.00;100515.53;5056713;28;20224;-84
2022/01/15 07:43:29;;;;;;;34.57;15.03;;;;;;;1.54;100.00;100511.34;5051453;28;20655;-85
2022/01/15 07:45:57;;;;;;;36.33;16.13;;;;;;;1.69;100.00;100511.28;5054762;28;20189;-84
2022/01/15 07:48:25;;;;;;;29.97;13.33;;;;;;;1.80;100.00;100511.19;5111295;28;20240;-85
2022/01/15 07:50:54;;;;;;;36.73;15.60;;;;;;;1.84;100.00;100501.63;5110304;28;20199;-84
2022/01/15 07:53:24;;;;;;;32.80;14.20;;;;;;;1.92;100.00;100505.00;5109495;28;20276;-84
2022/01/15 07:55:53;;;;;;;28.00;12.53;;;;;;;1.90;100.00;100507.66;5107949;28;20221;-85
2022/01/15 07:58:21;;;;;;;41.47;17.50;;;;;;;2.00;100.00;100505.84;5108341;28;20194;-85
2022/01/15 08:00:49;;;;;;;38.87;16.47;;;;;;;1.97;100.00;100503.25;5106670;28;20291;-84
2022/01/15 08:03:18;;;;;;;31.43;14.57;;;;;;;2.14;100.00;100500.50;5119942;28;20202;-82
2022/01/15 08:05:47;;;;;;;27.70;13.30;;;;;;;2.08;100.00;100511.00;5131862;28;20195;-85
2022/01/15 08:08:15;;;;;;;21.63;10.13;;;;;;;2.05;100.00;100517.13;5133987;28;20195;-84
2022/01/15 08:10:45;;;;;;;21.57;10.30;;;;;;;1.93;100.00;100510.25;5132801;28;20191;-82
2022/01/15 08:13:13;;;;;;;20.87;10.60;;;;;;;1.69;100.00;100506.03;5095840;28;20193;-82
2022/01/15 08:15:42;;;;;;;19.57;10.00;;;;;;;1.86;100.00;100512.91;5073419;28;20181;-82
2022/01/15 08:18:10;;;;;;;17.97;8.83;;;;;;;2.01;100.00;100518.88;5073983;28;20189;-82
2022/01/15 08:20:42;;;;;;;19.20;8.77;;;;;;;1.98;100.00;100512.81;5078838;27;20233;-81
2022/01/15 08:23:10;;;;;;;21.27;9.80;;;;;;;2.08;100.00;100506.66;5067933;27;20234;-85
2022/01/15 08:25:39;;;;;;;16.70;8.70;;;;;;;2.09;100.00;100512.75;5053177;28;20205;-85
2022/01/15 08:28:08;;;;;;;9.63;5.37;;;;;;;2.03;100.00;100513.66;5061070;27;20257;-85
2022/01/15 08:30:37;;;;;;;11.30;6.23;;;;;;;2.18;100.00;100500.47;5053231;28;20208;-85
2022/01/15 08:33:05;;;;;;;15.30;7.80;;;;;;;2.22;100.00;100504.81;5053134;28;20197;-85
2022/01/15 08:35:33;;;;;;;13.53;7.53;;;;;;;2.03;100.00;100505.84;5050533;28;20194;-85
2022/01/15 08:38:02;;;;;;;11.30;5.97;;;;;;;2.02;100.00;100506.69;5056094;28;20228;-85
2022/01/15 08:40:32;;;;;;;11.37;6.63;;;;;;;2.01;100.00;100512.78;5048434;28;20281;-85
2022/01/15 08:43:02;;;;;;;12.57;6.30;;;;;;;1.82;100.00;100508.56;5052614;28;20201;-85
2022/01/15 08:45:32;;;;;;;12.17;6.07;;;;;;;1.76;100.00;100521.69;5055376;28;20196;-84
2022/01/15 08:48:02;;;;;;;12.40;6.83;;;;;;;1.76;100.00;100516.47;5057274;27;20221;-84
2022/01/15 08:50:30;;;;;;;12.83;6.93;;;;;;;1.99;100.00;100518.03;5050970;28;20193;-83
2022/01/15 08:52:58;;;;;;;11.40;6.67;;;;;;;2.11;100.00;100505.75;5055820;27;20205;-85
2022/01/15 08:55:29;;;;;;;12.37;7.70;;;;;;;1.99;100.00;100509.31;5057954;27;20605;-85
2022/01/15 08:58:02;;;;;;;13.73;7.37;;;;;;;2.14;100.00;100501.38;5052437;28;20189;-84
2022/01/15 09:00:32;;;;;;;11.50;6.87;;;;;;;2.14;100.00;100501.38;5098837;28;20209;-84
2022/01/15 09:03:01;;;;;;;13.97;7.00;;;;;;;2.14;100.00;100497.91;5052960;28;20232;-84
2022/01/15 09:05:32;;;;;;;13.77;7.20;;;;;;;2.14;100.00;100498.78;5049552;28;20201;-84
2022/01/15 09:08:00;;;;;;;11.10;6.43;;;;;;;2.24;100.00;100502.19;5049078;28;20651;-84
2022/01/15 09:10:28;;;;;;;9.70;5.67;;;;;;;2.14;100.00;100496.16;5049923;28;20197;-84
2022/01/15 09:12:58;;;;;;;11.93;6.97;;;;;;;2.10;100.00;100501.41;5051539;28;20205;-84
2022/01/15 09:15:32;;;;;;;10.47;6.03;;;;;;;2.03;100.00;100500.59;5062662;28;20323;-84
2022/01/15 09:18:05;;;;;;;9.80;5.80;;;;;;;1.86;100.00;100495.50;5013726;28;20269;-84
2022/01/15 09:20:33;;;;;;;9.63;5.47;;;;;;;2.10;100.00;100485.72;5011459;28;20223;-84
2022/01/15 09:23:02;;;;;;;9.93;5.77;;;;;;;2.13;100.00;100499.66;5011770;28;20228;-83
2022/01/15 09:25:30;;;;;;;12.47;7.07;;;;;;;2.07;100.00;100491.84;5013072;28;20209;-83
2022/01/15 09:30:44;;;;;;;10.27;6.33;;;;;;;2.24;100.00;100491.72;5011827;28;20199;-84
2022/01/15 09:33:16;;;;;;;51.63;27.40;;;;;;;2.05;100.00;100487.53;5017602;28;20202;-84
2022/01/15 09:35:45;;;;;;;15.23;9.63;;;;;;;2.20;100.00;100485.63;5020434;28;20249;-84
2022/01/15 09:38:15;;;;;;;13.67;10.93;;;;;;;2.25;100.00;100490.84;5052151;28;20232;-84
2022/01/15 09:40:45;;;;;;;12.03;8.80;;;;;;;2.32;100.00;100478.56;5052743;28;20229;-83
2022/01/15 09:43:15;;;;;;;11.83;8.67;;;;;;;2.48;100.00;100485.38;5050268;28;20195;-84
2022/01/15 09:45:45;;;;;;;7.30;4.77;;;;;;;2.44;100.00;100468.88;5058061;27;20201;-84
2022/01/15 09:48:17;;;;;;;10.07;6.07;;;;;;;2.42;100.00;100470.63;5051968;28;20205;-84
2022/01/15 09:50:47;;;;;;;9.30;6.10;;;;;;;2.43;100.00;100468.88;5057302;27;20786;-85
2022/01/15 09:53:18;;;;;;;8.60;5.30;;;;;;;2.35;100.00;100471.56;5055588;27;20647;-83
2022/01/15 09:55:47;;;;;;;7.70;5.10;;;;;;;2.32;100.00;100468.09;5049267;28;20185;-83
2022/01/15 09:58:17;;;;;;;11.30;6.97;;;;;;;2.11;100.00;100470.03;5051256;28;20644;-84
2022/01/15 10:00:46;;;;;;;10.07;5.47;;;;;;;2.19;100.00;100464.75;5051646;28;20227;-83
2022/01/15 10:03:17;;;;;;;11.40;8.33;;;;;;;2.38;100.00;100463.69;5057245;27;20205;-83
2022/01/15 10:05:46;;;;;;;16.73;10.00;;;;;;;2.33;100.00;100460.28;5049704;28;20199;-84
2022/01/15 10:08:20;;;;;;;11.23;6.43;;;;;;;2.27;100.00;100458.56;5053909;28;20208;-83
2022/01/15 10:10:50;;;;;;;9.43;5.67;;;;;;;2.35;100.00;100458.50;5046993;28;20648;-83
2022/01/15 10:13:21;;;;;;;9.53;5.90;;;;;;;2.35;100.00;100457.63;5057648;27;20212;-83
2022/01/15 10:15:51;;;;;;;9.27;5.47;;;;;;;2.24;100.00;100447.28;5061499;28;20194;-83
2022/01/15 10:18:27;;;;;;;9.80;5.80;;;;;;;2.20;100.00;100448.16;5080086;27;20192;-82
2022/01/15 10:21:10;;;;;;;7.10;4.80;;;;;;;2.36;100.00;100457.59;5074985;28;20223;-81
2022/01/15 10:23:46;;;;;;;9.47;6.50;;;;;;;2.35;100.00;100449.78;5052128;28;20189;-83
2022/01/15 10:26:20;;;;;;;9.97;7.27;;;;;;;2.17;100.00;100445.59;5050060;28;20192;-83
2022/01/15 10:28:50;;;;;;;9.30;5.80;;;;;;;2.24;100.00;100437.69;5052506;28;20270;-83
2022/01/15 10:31:20;;;;;;;10.17;6.93;;;;;;;2.29;100.00;100446.34;5064064;28;20194;-83
2022/01/15 10:33:57;;;;;;;9.07;5.60;;;;;;;2.41;100.00;100452.31;5066360;28;20199;-83
2022/01/15 10:36:27;;;;;;;10.60;6.33;;;;;;;2.33;100.00;100441.09;5068438;28;20212;-83
2022/01/15 10:39:13;;;;;;;9.47;6.20;;;;;;;2.33;100.00;100441.09;5069510;28;20225;-83
2022/01/15 10:41:42;;;;;;;11.03;7.97;;;;;;;2.47;100.00;100447.03;5062470;27;20229;-83
2022/01/15 10:44:30;;;;;;;9.63;6.30;;;;;;;2.48;100.00;100443.53;5048602;28;20200;-83
2022/01/15 10:47:03;;;;;;;10.97;6.53;;;;;;;2.55;100.00;100437.38;5050027;28;20253;-83
2022/01/15 10:49:33;;;;;;;7.97;5.53;;;;;;;2.48;100.00;100430.47;5052465;28;20259;-83
2022/01/15 10:52:13;;;;;;;8.77;6.03;;;;;;;2.51;100.00;100433.94;5046480;28;20197;-83
2022/01/15 10:54:58;;;;;;;9.73;5.33;;;;;;;2.35;100.00;100434.97;5053107;28;20193;-83
2022/01/15 10:57:29;;;;;;;9.23;5.70;;;;;;;2.35;100.00;100429.75;5046026;28;20193;-84
2022/01/15 11:00:20;;;;;;;9.57;6.43;;;;;;;2.37;100.00;100429.72;5050474;28;20253;-83
2022/01/15 11:02:52;;;;;;;11.73;9.00;;;;;;;2.48;100.00;100422.63;5053048;28;20224;-84
2022/01/15 11:05:36;;;;;;;11.07;6.93;;;;;;;2.40;100.00;100409.63;5051278;28;20196;-83
2022/01/15 11:08:11;;;;;;;34.93;27.33;;;;;;;2.53;100.00;100403.41;5052765;28;20252;-83
2022/01/15 11:10:48;;;;;;;16.23;12.20;;;;;;;2.56;100.00;100402.50;5051687;28;20189;-84
2022/01/15 11:13:18;;;;;;;9.30;7.00;;;;;;;2.61;100.00;100395.47;5048799;28;20253;-84
2022/01/15 11:15:48;;;;;;;11.70;10.30;;;;;;;2.57;100.00;100393.75;5050194;28;20205;-83
2022/01/15 11:18:21;;;;;;;7.10;5.80;;;;;;;2.55;100.00;100396.41;5048136;28;20253;-84
2022/01/15 11:20:53;;;;;;;9.70;6.83;;;;;;;2.51;100.00;100399.94;5051969;28;20197;-82
2022/01/15 11:23:23;;;;;;;9.60;6.73;;;;;;;2.36;100.00;100388.78;5051012;28;20226;-84
2022/01/15 11:25:53;;;;;;;8.63;5.63;;;;;;;2.33;100.00;100386.22;5050508;28;20257;-84
2022/01/15 11:28:26;;;;;;;7.77;5.50;;;;;;;2.51;100.00;100389.47;5047685;28;20604;-84
2022/01/15 11:30:56;;;;;;;10.57;7.07;;;;;;;2.47;100.00;100386.91;5050729;28;20199;-84
2022/01/15 11:33:30;;;;;;;9.00;5.80;;;;;;;2.52;100.00;100388.59;5048103;28;20205;-84
2022/01/15 11:36:02;;;;;;;8.43;5.63;;;;;;;2.53;100.00;100379.88;5051764;28;20246;-84
2022/01/15 11:38:44;;;;;;;7.77;5.70;;;;;;;2.70;100.00;100369.22;5044631;28;20680;-83
2022/01/15 11:41:40;;;;;;;8.93;5.20;;;;;;;2.69;100.00;100375.28;5052285;28;20225;-83